createdAt,value
2022-11-05T00:00:12.968Z,98112.66
2022-11-05T00:01:14.278Z,98109.72
2022-11-05T00:02:15.615Z,98110.50
2022-11-05T00:03:16.941Z,98119.22
2022-11-05T00:04:18.331Z,98114.38
2022-11-05T00:05:19.619Z,98111.75
2022-11-05T00:06:20.913Z,98119.41
2022-11-05T00:07:26.765Z,98119.69
2022-11-05T00:08:28.074Z,98122.31
2022-11-05T00:09:30.652Z,98124.38
2022-11-05T00:10:34.466Z,98115.94
2022-11-05T00:11:35.793Z,98120.78
2022-11-05T00:12:37.189Z,98123.88
2022-11-05T00:13:38.515Z,98118.13
2022-11-05T00:14:39.839Z,98123.88
2022-11-05T00:15:41.171Z,98126.84
2022-11-05T00:16:42.491Z,98129.16
2022-11-05T00:17:43.772Z,98125.47
2022-11-05T00:18:45.111Z,98116.75
2022-11-05T00:19:46.438Z,98130.75
2022-11-05T00:20:48.576Z,98127.34
2022-11-05T00:21:49.852Z,98136.06
2022-11-05T00:22:51.217Z,98132.00
2022-11-05T00:23:52.575Z,98135.44
2022-11-05T00:24:53.969Z,98133.41
2022-11-05T00:25:55.426Z,98134.47
2022-11-05T00:26:56.732Z,98133.41
2022-11-05T00:28:01.081Z,98136.81
2022-11-05T00:29:02.417Z,98140.25
2022-11-05T00:30:03.870Z,98142.91
2022-11-05T00:31:05.918Z,98138.38
2022-11-05T00:32:07.236Z,98141.03
2022-11-05T00:33:08.909Z,98138.06
2022-11-05T00:34:10.463Z,98140.72
2022-11-05T00:35:11.929Z,98139.94
2022-11-05T00:36:13.313Z,98141.03
2022-11-05T00:37:14.648Z,98143.69
2022-11-05T00:38:16.511Z,98145.53
2022-11-05T00:39:17.840Z,98154.56
2022-11-05T00:40:19.139Z,98140.56
2022-11-05T00:41:20.456Z,98150.34
2022-11-05T00:42:21.966Z,98146.91
2022-11-05T00:43:23.464Z,98146.13
2022-11-05T00:44:24.785Z,98149.09
2022-11-05T00:45:26.478Z,98146.13
2022-11-05T00:46:27.933Z,98144.13
2022-11-05T00:47:30.223Z,98153.59
2022-11-05T00:48:31.572Z,98151.75
2022-11-05T00:49:32.872Z,98151.28
2022-11-05T00:50:34.289Z,98150.78
2022-11-05T00:51:35.601Z,98153.13
2022-11-05T00:52:37.206Z,98156.06
2022-11-05T00:53:38.707Z,98152.66
2022-11-05T00:54:40.045Z,98154.19
2022-11-05T00:55:43.053Z,98151.38
2022-11-05T00:56:44.374Z,98151.88
2022-11-05T00:57:45.718Z,98155.28
2022-11-05T00:58:47.033Z,98150.00
2022-11-05T00:59:48.338Z,98157.94
2022-11-05T01:00:53.891Z,98153.25
2022-11-05T01:01:55.284Z,98161.19
2022-11-05T01:02:57.570Z,98161.19
2022-11-05T01:03:58.933Z,98162.25
2022-11-05T01:05:00.242Z,98166.31
2022-11-05T01:06:21.783Z,98167.09
2022-11-05T01:07:23.132Z,98169.75
2022-11-05T01:08:25.565Z,98169.75
2022-11-05T01:09:26.879Z,98174.84
2022-11-05T01:10:28.472Z,98171.09
2022-11-05T01:11:29.758Z,98181.41
2022-11-05T01:12:31.179Z,98181.09
2022-11-05T01:13:32.523Z,98178.44
2022-11-05T01:14:33.896Z,98183.44
2022-11-05T01:15:36.843Z,98186.38
2022-11-05T01:16:39.038Z,98182.34
2022-11-05T01:17:40.630Z,98179.69
2022-11-05T01:18:41.962Z,98190.28
2022-11-05T01:19:43.330Z,98179.69
2022-11-05T01:20:45.014Z,98185.00
2022-11-05T01:21:46.799Z,98186.56
2022-11-05T01:22:48.120Z,98188.13
2022-11-05T01:23:49.387Z,98192.66
2022-11-05T01:24:50.740Z,98198.72
2022-11-05T01:25:52.021Z,98191.56
2022-11-05T01:26:53.330Z,98194.97
2022-11-05T01:27:54.659Z,98190.47
2022-11-05T01:28:57.450Z,98191.25
2022-11-05T01:29:58.844Z,98189.38
2022-11-05T01:31:00.154Z,98180.97
2022-11-05T01:32:01.466Z,98201.38
2022-11-05T01:33:03.126Z,98192.66
2022-11-05T01:34:04.435Z,98201.38
2022-11-05T01:35:07.107Z,98202.91
2022-11-05T01:36:08.612Z,98199.50
2022-11-05T01:37:09.909Z,98200.59
2022-11-05T01:38:11.242Z,98195.75
2022-11-05T01:39:12.647Z,98197.31
2022-11-05T01:40:16.145Z,98202.63
2022-11-05T01:41:17.543Z,98202.63
2022-11-05T01:42:22.877Z,98199.19
2022-11-05T01:43:24.195Z,98203.38
2022-11-05T01:44:44.232Z,98202.31
2022-11-05T01:45:47.753Z,98194.66
2022-11-05T01:46:49.164Z,98191.25
2022-11-05T01:48:02.369Z,98198.09
2022-11-05T01:49:10.409Z,98206.34
2022-11-05T01:50:19.559Z,98207.13
2022-11-05T01:51:24.687Z,98204.47
2022-11-05T01:52:26.737Z,98203.38
2022-11-05T01:53:43.109Z,98211.31
2022-11-05T01:54:45.893Z,98209.50
2022-11-05T01:55:54.039Z,98211.81
2022-11-05T01:56:57.925Z,98208.41
2022-11-05T01:58:00.537Z,98211.06
2022-11-05T01:59:13.892Z,98211.06
2022-11-05T02:00:15.484Z,98208.22
2022-11-05T02:01:17.277Z,98213.50
2022-11-05T02:02:18.854Z,98210.84
2022-11-05T02:03:20.495Z,98209.50
2022-11-05T02:04:27.546Z,98204.19
2022-11-05T02:05:29.152Z,98212.41
2022-11-05T02:06:32.544Z,98208.22
2022-11-05T02:07:33.920Z,98210.84
2022-11-05T02:08:45.745Z,98205.88
2022-11-05T02:09:57.059Z,98205.88
2022-11-05T02:10:58.464Z,98210.09
2022-11-05T02:12:00.063Z,98209.59
2022-11-05T02:13:01.432Z,98215.69
2022-11-05T02:14:03.083Z,98218.31
2022-11-05T02:15:05.646Z,98213.31
2022-11-05T02:16:09.917Z,98218.31
2022-11-05T02:17:23.386Z,98218.59
2022-11-05T02:18:24.667Z,98218.31
2022-11-05T02:19:44.806Z,98215.97
2022-11-05T02:21:02.650Z,98219.38
2022-11-05T02:22:12.742Z,98218.03
2022-11-05T02:23:27.575Z,98224.09
2022-11-05T02:24:34.649Z,98219.56
2022-11-05T02:25:35.921Z,98223.97
2022-11-05T02:26:37.240Z,98221.13
2022-11-05T02:27:38.497Z,98223.00
2022-11-05T02:29:03.111Z,98224.88
2022-11-05T02:30:04.479Z,98222.34
2022-11-05T02:31:08.711Z,98220.78
2022-11-05T02:32:31.554Z,98223.44
2022-11-05T02:33:43.872Z,98220.78
2022-11-05T02:34:54.552Z,98226.53
2022-11-05T02:36:04.325Z,98223.63
2022-11-05T02:37:12.955Z,98222.81
2022-11-05T02:38:32.859Z,98222.22
2022-11-05T02:39:39.735Z,98229.84
2022-11-05T02:40:51.794Z,98215.06
2022-11-05T02:42:05.176Z,98224.56
2022-11-05T02:43:10.095Z,98223.50
2022-11-05T02:44:20.703Z,98225.66
2022-11-05T02:45:25.012Z,98223.00
2022-11-05T02:46:38.483Z,98228.28
2022-11-05T02:47:58.230Z,98229.97
2022-11-05T02:49:17.746Z,98229.50
2022-11-05T02:50:40.029Z,98229.50
2022-11-05T02:51:47.219Z,98233.22
2022-11-05T02:52:57.939Z,98231.06
2022-11-05T02:54:11.106Z,98231.84
2022-11-05T02:55:12.395Z,98232.34
2022-11-05T02:56:25.509Z,98228.47
2022-11-05T02:57:28.957Z,98230.66
2022-11-05T02:58:30.560Z,98233.31
2022-11-05T02:59:31.859Z,98234.38
2022-11-05T03:00:49.718Z,98237.97
2022-11-05T03:01:51.998Z,98234.25
2022-11-05T03:02:53.447Z,98232.38
2022-11-05T03:03:56.960Z,98231.91
2022-11-05T03:04:58.889Z,98236.88
2022-11-05T03:06:03.016Z,98236.09
2022-11-05T03:07:16.655Z,98230.53
2022-11-05T03:08:44.404Z,98235.34
2022-11-05T03:09:45.687Z,98226.94
2022-11-05T03:10:57.178Z,98231.91
2022-11-05T03:12:13.783Z,98232.22
2022-11-05T03:13:15.066Z,98229.84
2022-11-05T03:14:16.335Z,98233.59
2022-11-05T03:15:36.423Z,98232.81
2022-11-05T03:16:37.728Z,98235.44
2022-11-05T03:17:44.636Z,98238.09
2022-11-05T03:18:45.934Z,98238.41
2022-11-05T03:19:59.459Z,98241.84
2022-11-05T03:21:11.871Z,98238.88
2022-11-05T03:22:16.387Z,98238.09
2022-11-05T03:23:25.333Z,98247.91
2022-11-05T03:24:28.225Z,98243.38
2022-11-05T03:25:30.278Z,98247.59
2022-11-05T03:26:33.880Z,98242.91
2022-11-05T03:27:38.193Z,98249.00
2022-11-05T03:28:41.007Z,98248.22
2022-11-05T03:29:54.181Z,98253.19
2022-11-05T03:30:57.568Z,98258.97
2022-11-05T03:32:00.959Z,98251.03
2022-11-05T03:33:05.626Z,98252.59
2022-11-05T03:34:08.606Z,98255.25
2022-11-05T03:35:16.851Z,98253.38
2022-11-05T03:36:26.943Z,98257.13
2022-11-05T03:37:31.756Z,98261.78
2022-11-05T03:38:34.895Z,98259.16
2022-11-05T03:39:38.642Z,98252.50
2022-11-05T03:40:41.420Z,98263.06
2022-11-05T03:41:44.709Z,98260.22
2022-11-05T03:42:48.648Z,98254.16
2022-11-05T03:43:51.995Z,98258.69
2022-11-05T03:44:55.474Z,98264.75
2022-11-05T03:45:59.464Z,98264.31
2022-11-05T03:47:03.667Z,98268.66
2022-11-05T03:48:06.607Z,98267.41
2022-11-05T03:49:11.011Z,98273.00
2022-11-05T03:50:32.361Z,98272.69
2022-11-05T03:51:42.981Z,98274.25
2022-11-05T03:52:54.417Z,98279.34
2022-11-05T03:53:57.556Z,98274.84
2022-11-05T03:54:59.355Z,98284.34
2022-11-05T03:56:10.326Z,98288.06
2022-11-05T03:57:20.771Z,98281.22
2022-11-05T03:58:22.834Z,98287.28
2022-11-05T03:59:24.235Z,98279.34
2022-11-05T04:00:25.604Z,98287.47
2022-11-05T04:01:27.438Z,98287.47
2022-11-05T04:02:28.905Z,98290.13
2022-11-05T04:03:30.319Z,98287.28
2022-11-05T04:04:31.618Z,98291.03
2022-11-05T04:05:32.938Z,98291.03
2022-11-05T04:06:34.253Z,98292.56
2022-11-05T04:07:35.668Z,98303.66
2022-11-05T04:08:36.996Z,98299.16
2022-11-05T04:09:38.315Z,98301.50
2022-11-05T04:10:39.635Z,98303.81
2022-11-05T04:11:41.036Z,98301.50
2022-11-05T04:12:42.483Z,98303.66
2022-11-05T04:13:43.776Z,98303.66
2022-11-05T04:14:45.094Z,98304.44
2022-11-05T04:15:46.431Z,98310.81
2022-11-05T04:16:47.754Z,98311.59
2022-11-05T04:17:49.057Z,98310.81
2022-11-05T04:18:50.602Z,98310.03
2022-11-05T04:19:51.880Z,98308.44
2022-11-05T04:20:53.175Z,98310.31
2022-11-05T04:21:54.510Z,98315.03
2022-11-05T04:22:59.174Z,98314.25
2022-11-05T04:24:00.475Z,98317.97
2022-11-05T04:25:01.817Z,98315.13
2022-11-05T04:26:03.132Z,98317.78
2022-11-05T04:27:04.427Z,98321.22
2022-11-05T04:28:05.730Z,98317.47
2022-11-05T04:29:08.055Z,98319.03
2022-11-05T04:30:09.902Z,98322.19
2022-11-05T04:31:11.187Z,98322.78
2022-11-05T04:32:12.508Z,98322.78
2022-11-05T04:33:15.630Z,98317.47
2022-11-05T04:34:17.185Z,98321.69
2022-11-05T04:35:18.470Z,98329.34
2022-11-05T04:36:19.759Z,98326.69
2022-11-05T04:37:21.095Z,98322.47
2022-11-05T04:38:22.377Z,98330.91
2022-11-05T04:39:23.697Z,98328.72
2022-11-05T04:40:25.415Z,98326.09
2022-11-05T04:41:26.705Z,98331.09
2022-11-05T04:42:28.028Z,98331.09
2022-11-05T04:43:29.307Z,98326.88
2022-11-05T04:44:30.619Z,98328.72
2022-11-05T04:45:32.734Z,98327.94
2022-11-05T04:46:34.014Z,98332.16
2022-11-05T04:47:35.286Z,98330.59
2022-11-05T04:48:36.616Z,98329.50
2022-11-05T04:49:37.893Z,98331.88
2022-11-05T04:50:39.480Z,98332.66
2022-11-05T04:51:40.803Z,98331.38
2022-11-05T04:52:42.268Z,98336.66
2022-11-05T04:53:43.550Z,98333.56
2022-11-05T04:54:44.886Z,98339.03
2022-11-05T04:55:46.468Z,98335.59
2022-11-05T04:56:47.754Z,98336.38
2022-11-05T04:57:49.962Z,98335.09
2022-11-05T04:58:51.283Z,98338.06
2022-11-05T04:59:52.569Z,98336.38
2022-11-05T05:00:53.917Z,98340.09
2022-11-05T05:01:55.357Z,98336.66
2022-11-05T05:02:56.668Z,98338.53
2022-11-05T05:03:57.983Z,98336.66
2022-11-05T05:04:59.278Z,98349.13
2022-11-05T05:06:03.754Z,98345.69
2022-11-05T05:07:05.532Z,98340.09
2022-11-05T05:08:06.863Z,98341.19
2022-11-05T05:09:08.177Z,98351.00
2022-11-05T05:10:10.016Z,98351.00
2022-11-05T05:11:12.033Z,98342.56
2022-11-05T05:12:13.343Z,98344.91
2022-11-05T05:13:14.655Z,98347.56
2022-11-05T05:14:16.067Z,98350.69
2022-11-05T05:15:17.519Z,98346.47
2022-11-05T05:16:20.217Z,98343.84
2022-11-05T05:17:21.566Z,98347.25
2022-11-05T05:18:22.863Z,98350.22
2022-11-05T05:19:24.439Z,98355.19
2022-11-05T05:20:25.774Z,98361.56
2022-11-05T05:21:27.094Z,98352.06
2022-11-05T05:22:28.555Z,98355.50
2022-11-05T05:23:29.849Z,98359.50
2022-11-05T05:24:31.175Z,98360.78
2022-11-05T05:25:32.515Z,98358.44
2022-11-05T05:26:34.150Z,98359.50
2022-11-05T05:27:35.442Z,98359.22
2022-11-05T05:28:36.727Z,98359.81
2022-11-05T05:29:38.075Z,98363.56
2022-11-05T05:30:39.370Z,98357.16
2022-11-05T05:31:40.775Z,98366.78
2022-11-05T05:32:42.090Z,98362.25
2022-11-05T05:33:43.396Z,98362.78
2022-11-05T05:34:44.746Z,98361.47
2022-11-05T05:35:46.059Z,98362.88
2022-11-05T05:36:47.390Z,98365.53
2022-11-05T05:37:48.658Z,98375.22
2022-11-05T05:38:50.361Z,98377.09
2022-11-05T05:39:51.649Z,98376.56
2022-11-05T05:40:56.864Z,98378.13
2022-11-05T05:41:58.150Z,98383.44
2022-11-05T05:42:59.428Z,98383.75
2022-11-05T05:44:00.745Z,98382.97
2022-11-05T05:45:02.064Z,98387.47
2022-11-05T05:46:03.948Z,98385.31
2022-11-05T05:47:05.437Z,98381.88
2022-11-05T05:48:06.731Z,98388.44
2022-11-05T05:49:12.492Z,98385.81
2022-11-05T05:50:14.143Z,98385.03
2022-11-05T05:51:15.817Z,98383.16
2022-11-05T05:52:17.116Z,98386.59
2022-11-05T05:53:20.627Z,98389.81
2022-11-05T05:54:21.983Z,98388.72
2022-11-05T05:55:23.266Z,98386.06
2022-11-05T05:56:24.586Z,98393.75
2022-11-05T05:57:25.918Z,98392.97
2022-11-05T05:58:30.602Z,98396.09
2022-11-05T05:59:31.881Z,98391.88
2022-11-05T06:00:33.189Z,98403.53
2022-11-05T06:01:37.454Z,98399.31
2022-11-05T06:02:38.966Z,98399.63
2022-11-05T06:03:40.482Z,98394.00
2022-11-05T06:04:41.806Z,98409.09
2022-11-05T06:05:43.099Z,98403.34
2022-11-05T06:06:44.438Z,98402.25
2022-11-05T06:07:45.747Z,98407.84
2022-11-05T06:08:47.672Z,98409.41
2022-11-05T06:09:49.030Z,98406.78
2022-11-05T06:10:50.842Z,98408.63
2022-11-05T06:11:54.311Z,98419.22
2022-11-05T06:12:55.595Z,98413.94
2022-11-05T06:13:56.894Z,98412.38
2022-11-05T06:14:58.211Z,98414.41
2022-11-05T06:16:17.673Z,98414.13
2022-11-05T06:17:19.017Z,98418.13
2022-11-05T06:18:20.335Z,98417.34
2022-11-05T06:19:21.673Z,98421.09
2022-11-05T06:20:22.993Z,98418.13
2022-11-05T06:21:24.274Z,98420.78
2022-11-05T06:22:25.570Z,98424.72
2022-11-05T06:23:26.937Z,98429.03
2022-11-05T06:24:28.234Z,98426.38
2022-11-05T06:25:29.589Z,98422.44
2022-11-05T06:26:31.143Z,98431.47
2022-11-05T06:27:37.093Z,98428.34
2022-11-05T06:28:38.444Z,98428.81
2022-11-05T06:29:39.713Z,98436.75
2022-11-05T06:30:41.004Z,98436.75
2022-11-05T06:31:42.402Z,98437.53
2022-11-05T06:32:44.042Z,98438.94
2022-11-05T06:33:45.373Z,98443.44
2022-11-05T06:34:46.710Z,98442.34
2022-11-05T06:35:48.104Z,98441.56
2022-11-05T06:36:49.397Z,98440.19
2022-11-05T06:37:50.734Z,98443.59
2022-11-05T06:38:52.075Z,98445.47
2022-11-05T06:39:53.615Z,98440.97
2022-11-05T06:40:57.442Z,98449.50
2022-11-05T06:43:20.058Z,98439.50
2022-11-05T06:44:23.690Z,98444.59
2022-11-05T06:45:27.439Z,98451.25
2022-11-05T06:46:28.766Z,98452.81
2022-11-05T06:47:30.096Z,98447.63
2022-11-05T06:48:31.514Z,98454.28
2022-11-05T06:49:32.848Z,98452.72
2022-11-05T06:50:34.166Z,98459.09
2022-11-05T06:51:35.491Z,98457.53
2022-11-05T06:52:41.383Z,98457.81
2022-11-05T06:53:42.823Z,98460.75
2022-11-05T06:54:46.876Z,98467.59
2022-11-05T06:55:48.182Z,98463.28
2022-11-05T06:56:49.468Z,98459.28
2022-11-05T06:57:50.869Z,98465.06
2022-11-05T06:58:52.168Z,98467.22
2022-11-05T07:00:01.385Z,98475.16
2022-11-05T07:01:06.174Z,98475.66
2022-11-05T07:02:09.884Z,98466.84
2022-11-05T07:03:12.255Z,98472.59
2022-11-05T07:04:13.807Z,98479.97
2022-11-05T07:05:18.154Z,98471.94
2022-11-05T07:06:21.830Z,98474.56
2022-11-05T07:07:23.153Z,98482.72
2022-11-05T07:08:24.457Z,98490.56
2022-11-05T07:09:25.863Z,98486.53
2022-11-05T07:10:30.244Z,98496.53
2022-11-05T07:11:31.545Z,98487.72
2022-11-05T07:12:32.855Z,98498.59
2022-11-05T07:13:36.475Z,98504.88
2022-11-05T07:14:37.851Z,98497.41
2022-11-05T07:15:39.146Z,98505.06
2022-11-05T07:16:40.454Z,98504.78
2022-11-05T07:17:41.806Z,98510.56
2022-11-05T07:18:51.118Z,98508.38
2022-11-05T07:19:52.437Z,98510.75
2022-11-05T07:20:54.016Z,98508.00
2022-11-05T07:21:58.126Z,98518.88
2022-11-05T07:23:11.027Z,98523.69
2022-11-05T07:24:12.580Z,98519.69
2022-11-05T07:25:13.937Z,98522.34
2022-11-05T07:26:15.272Z,98525.25
2022-11-05T07:27:16.713Z,98525.09
2022-11-05T07:28:20.691Z,98522.91
2022-11-05T07:29:22.013Z,98521.34
2022-11-05T07:30:23.362Z,98527.91
2022-11-05T07:31:27.130Z,98526.13
2022-11-05T07:32:30.350Z,98524.28
2022-11-05T07:33:36.332Z,98528.97
2022-11-05T07:34:37.925Z,98532.41
2022-11-05T07:35:39.291Z,98531.63
2022-11-05T07:36:40.592Z,98535.84
2022-11-05T07:37:48.196Z,98534.59
2022-11-05T07:38:49.513Z,98544.66
2022-11-05T07:39:50.823Z,98545.97
2022-11-05T07:40:52.195Z,98535.56
2022-11-05T07:41:53.540Z,98553.13
2022-11-05T07:43:00.357Z,98548.91
2022-11-05T07:44:01.801Z,98554.00
2022-11-05T07:45:03.166Z,98550.25
2022-11-05T07:46:04.510Z,98555.06
2022-11-05T07:47:08.966Z,98556.34
2022-11-05T07:48:10.338Z,98555.34
2022-11-05T07:49:11.726Z,98562.22
2022-11-05T07:50:16.895Z,98559.19
2022-11-05T07:51:18.196Z,98563.13
2022-11-05T07:52:19.491Z,98564.00
2022-11-05T07:53:20.789Z,98558.88
2022-11-05T07:54:24.426Z,98568.41
2022-11-05T07:55:28.395Z,98567.03
2022-11-05T07:56:30.681Z,98564.84
2022-11-05T07:57:32.043Z,98571.75
2022-11-05T07:58:33.383Z,98563.50
2022-11-05T07:59:34.722Z,98570.09
2022-11-05T08:00:36.209Z,98581.16
2022-11-05T08:01:37.794Z,98577.72
2022-11-05T08:02:39.400Z,98584.00
2022-11-05T08:03:40.946Z,98588.19
2022-11-05T08:04:42.299Z,98579.56
2022-11-05T08:05:45.556Z,98582.22
2022-11-05T08:06:46.921Z,98583.00
2022-11-05T08:07:48.204Z,98578.00
2022-11-05T08:08:49.530Z,98583.28
2022-11-05T08:09:50.868Z,98582.50
2022-11-05T08:10:52.157Z,98585.63
2022-11-05T08:11:57.358Z,98587.81
2022-11-05T08:13:01.533Z,98597.41
2022-11-05T08:14:02.900Z,98592.97
2022-11-05T08:15:07.430Z,98588.78
2022-11-05T08:16:08.737Z,98592.47
2022-11-05T08:17:10.794Z,98595.63
2022-11-05T08:18:15.040Z,98587.97
2022-11-05T08:19:16.342Z,98590.91
2022-11-05T08:20:17.689Z,98597.06
2022-11-05T08:21:19.445Z,98583.84
2022-11-05T08:22:20.933Z,98590.22
2022-11-05T08:23:22.250Z,98592.06
2022-11-05T08:24:23.561Z,98594.16
2022-11-05T08:25:24.918Z,98600.00
2022-11-05T08:26:26.225Z,98597.16
2022-11-05T08:27:27.573Z,98603.22
2022-11-05T08:28:29.019Z,98595.69
2022-11-05T08:29:30.598Z,98603.31
2022-11-05T08:30:34.859Z,98607.59
2022-11-05T08:31:36.172Z,98599.50
2022-11-05T08:32:37.546Z,98613.84
2022-11-05T08:33:38.845Z,98607.84
2022-11-05T08:34:40.180Z,98611.19
2022-11-05T08:35:41.818Z,98606.72
2022-11-05T08:36:43.225Z,98612.28
2022-11-05T08:37:44.494Z,98618.34
2022-11-05T08:38:45.872Z,98612.19
2022-11-05T08:39:47.186Z,98615.13
2022-11-05T08:40:55.746Z,98617.50
2022-11-05T08:41:57.026Z,98615.53
2022-11-05T08:42:59.077Z,98617.13
2022-11-05T08:44:00.401Z,98616.63
2022-11-05T08:45:01.684Z,98616.84
2022-11-05T08:46:03.025Z,98616.06
2022-11-05T08:47:04.395Z,98619.69
2022-11-05T08:48:07.025Z,98617.13
2022-11-05T08:49:08.462Z,98623.13
2022-11-05T08:50:09.795Z,98624.22
2022-11-05T08:51:11.211Z,98632.72
2022-11-05T08:52:12.521Z,98627.91
2022-11-05T08:53:14.352Z,98633.97
2022-11-05T08:54:15.854Z,98625.47
2022-11-05T08:55:17.187Z,98633.94
2022-11-05T08:56:18.510Z,98632.34
2022-11-05T08:57:19.818Z,98631.34
2022-11-05T08:58:21.125Z,98628.81
2022-11-05T08:59:22.419Z,98627.16
2022-11-05T09:00:24.124Z,98634.25
2022-11-05T09:01:25.616Z,98634.72
2022-11-05T09:02:27.056Z,98634.53
2022-11-05T09:03:28.661Z,98633.94
2022-11-05T09:04:29.995Z,98629.50
2022-11-05T09:05:32.002Z,98637.38
2022-11-05T09:06:33.354Z,98635.44
2022-11-05T09:07:34.690Z,98639.56
2022-11-05T09:08:36.063Z,98634.50
2022-11-05T09:09:37.411Z,98632.41
2022-11-05T09:10:39.331Z,98643.78
2022-11-05T09:12:10.105Z,98642.50
2022-11-05T09:13:01.978Z,98642.00
2022-11-05T09:14:03.413Z,98646.22
2022-11-05T09:15:05.455Z,98640.91
2022-11-05T09:16:06.895Z,98648.38
2022-11-05T09:17:18.796Z,98648.38
2022-11-05T09:18:20.313Z,98649.25
2022-11-05T09:19:21.645Z,98657.97
2022-11-05T09:20:23.441Z,98656.09
2022-11-05T09:21:24.811Z,98644.53
2022-11-05T09:22:26.101Z,98653.06
2022-11-05T09:23:27.471Z,98652.63
2022-11-05T09:24:28.771Z,98653.31
2022-11-05T09:25:30.078Z,98657.50
2022-11-05T09:26:31.453Z,98654.25
2022-11-05T09:27:32.824Z,98659.34
2022-11-05T09:28:34.162Z,98652.19
2022-11-05T09:29:37.769Z,98658.19
2022-11-05T09:30:41.290Z,98653.66
2022-11-05T09:31:42.649Z,98652.88
2022-11-05T09:32:43.936Z,98663.47
2022-11-05T09:33:45.296Z,98659.19
2022-11-05T09:34:46.622Z,98664.16
2022-11-05T09:35:48.171Z,98661.53
2022-11-05T09:36:49.463Z,98662.31
2022-11-05T09:37:50.778Z,98659.09
2022-11-05T09:38:52.131Z,98661.53
2022-11-05T09:39:53.755Z,98661.22
2022-11-05T09:41:01.155Z,98664.38
2022-11-05T09:42:05.327Z,98663.50
2022-11-05T09:43:06.706Z,98658.91
2022-11-05T09:44:30.891Z,98662.81
2022-11-05T09:45:34.102Z,98660.00
2022-11-05T09:46:41.001Z,98662.72
2022-11-05T09:47:44.336Z,98661.78
2022-11-05T09:48:47.893Z,98659.72
2022-11-05T09:49:51.658Z,98658.44
2022-11-05T09:50:53.916Z,98653.91
2022-11-05T09:51:57.321Z,98658.34
2022-11-05T09:52:58.675Z,98656.69
2022-11-05T09:54:00.508Z,98655.50
2022-11-05T09:55:03.502Z,98657.78
2022-11-05T09:56:12.045Z,98663.00
2022-11-05T09:57:16.204Z,98660.38
2022-11-05T09:58:25.911Z,98662.91
2022-11-05T09:59:33.350Z,98666.53
2022-11-05T10:00:34.698Z,98669.97
2022-11-05T10:01:37.497Z,98668.78
2022-11-05T10:02:46.782Z,98662.22
2022-11-05T10:03:50.663Z,98675.44
2022-11-05T10:04:55.148Z,98672.53
2022-11-05T10:06:02.134Z,98681.06
2022-11-05T10:07:05.614Z,98683.41
2022-11-05T10:08:25.421Z,98681.63
2022-11-05T10:09:32.741Z,98685.78
2022-11-05T10:10:41.215Z,98682.25
2022-11-05T10:11:48.449Z,98689.59
2022-11-05T10:12:53.158Z,98693.91
2022-11-05T10:13:58.463Z,98685.47
2022-11-05T10:15:06.965Z,98690.97
2022-11-05T10:16:19.618Z,98697.34
2022-11-05T10:17:22.472Z,98693.91
2022-11-05T10:18:30.390Z,98701.28
2022-11-05T10:19:38.285Z,98702.25
2022-11-05T10:20:39.702Z,98702.25
2022-11-05T10:23:10.487Z,98706.19
2022-11-05T10:24:17.188Z,98707.56
2022-11-05T10:25:19.703Z,98706.88
2022-11-05T10:26:24.050Z,98708.44
2022-11-05T10:27:29.104Z,98709.91
2022-11-05T10:28:31.722Z,98712.47
2022-11-05T10:29:34.254Z,98720.50
2022-11-05T10:30:35.778Z,98718.97
2022-11-05T10:31:37.574Z,98723.50
2022-11-05T10:32:39.812Z,98720.66
2022-11-05T10:33:41.177Z,98725.59
2022-11-05T10:34:42.677Z,98721.56
2022-11-05T10:35:47.895Z,98729.41
2022-11-05T10:36:49.225Z,98723.44
2022-11-05T10:37:51.193Z,98725.00
2022-11-05T10:38:53.402Z,98717.03
2022-11-05T10:39:55.233Z,98727.28
2022-11-05T10:41:05.774Z,98722.38
2022-11-05T10:42:25.850Z,98720.03
2022-11-05T10:43:46.450Z,98718.34
2022-11-05T10:44:58.000Z,98719.34
2022-11-05T10:46:22.160Z,98716.88
2022-11-05T10:47:42.251Z,98725.63
2022-11-05T10:48:44.292Z,98723.16
2022-11-05T10:49:59.346Z,98723.06
2022-11-05T10:51:01.008Z,98726.31
2022-11-05T10:52:11.782Z,98720.31
2022-11-05T10:53:27.546Z,98724.06
2022-11-05T10:54:31.641Z,98719.16
2022-11-05T10:55:34.906Z,98724.84
2022-11-05T10:56:37.389Z,98721.88
2022-11-05T10:57:40.311Z,98724.84
2022-11-05T10:58:52.947Z,98716.56
2022-11-05T11:00:14.223Z,98725.41
2022-11-05T11:01:15.697Z,98723.94
2022-11-05T11:02:21.426Z,98722.06
2022-11-05T11:03:34.414Z,98722.59
2022-11-05T11:04:38.066Z,98729.94
2022-11-05T11:05:40.181Z,98725.91
2022-11-05T11:06:45.470Z,98728.16
2022-11-05T11:07:57.438Z,98726.91
2022-11-05T11:09:00.472Z,98722.19
2022-11-05T11:10:02.476Z,98726.69
2022-11-05T11:11:05.845Z,98727.28
2022-11-05T11:12:20.192Z,98726.81
2022-11-05T11:13:29.620Z,98731.53
2022-11-05T11:14:31.186Z,98726.41
2022-11-05T11:15:34.971Z,98727.59
2022-11-05T11:16:38.237Z,98731.31
2022-11-05T11:17:39.881Z,98720.63
2022-11-05T11:18:42.650Z,98728.78
2022-11-05T11:19:43.924Z,98730.03
2022-11-05T11:20:45.319Z,98723.75
2022-11-05T11:21:46.863Z,98730.81
2022-11-05T11:23:06.781Z,98740.06
2022-11-05T11:24:18.598Z,98735.84
2022-11-05T11:25:27.249Z,98736.41
2022-11-05T11:26:39.806Z,98741.72
2022-11-05T11:27:41.194Z,98735.84
2022-11-05T11:28:51.859Z,98738.66
2022-11-05T11:30:01.110Z,98734.06
2022-11-05T11:31:08.222Z,98742.59
2022-11-05T11:32:14.171Z,98725.81
2022-11-05T11:33:19.366Z,98736.59
2022-11-05T11:34:31.580Z,98732.56
2022-11-05T11:35:35.206Z,98733.13
2022-11-05T11:36:39.619Z,98732.91
2022-11-05T11:37:41.001Z,98729.16
2022-11-05T11:38:43.031Z,98729.25
2022-11-05T11:39:49.281Z,98720.78
2022-11-05T11:40:51.174Z,98723.19
2022-11-05T11:41:54.557Z,98729.97
2022-11-05T11:42:57.701Z,98731.13
2022-11-05T11:44:06.120Z,98729.13
2022-11-05T11:45:15.686Z,98730.16
2022-11-05T11:46:18.738Z,98730.16
2022-11-05T11:47:21.889Z,98729.97
2022-11-05T11:48:25.280Z,98734.25
2022-11-05T11:49:39.477Z,98731.00
2022-11-05T11:50:44.803Z,98725.63
2022-11-05T11:51:49.995Z,98726.09
2022-11-05T11:52:52.087Z,98728.47
2022-11-05T11:53:56.447Z,98731.28
2022-11-05T11:55:27.195Z,98725.38
2022-11-05T11:56:29.033Z,98729.16
2022-11-05T11:57:30.420Z,98731.66
2022-11-05T11:58:36.659Z,98734.44
2022-11-05T12:00:07.253Z,98737.69
2022-11-05T12:01:03.583Z,98733.94
2022-11-05T12:02:14.057Z,98736.44
2022-11-05T12:03:37.196Z,98745.78
2022-11-05T12:04:43.467Z,98735.75
2022-11-05T12:06:03.521Z,98733.16
2022-11-05T12:07:04.899Z,98733.94
2022-11-05T12:08:24.674Z,98738.53
2022-11-05T12:09:34.360Z,98734.44
2022-11-05T12:10:35.696Z,98738.06
2022-11-05T12:11:36.958Z,98733.09
2022-11-05T12:12:46.037Z,98735.31
2022-11-05T12:13:59.260Z,98736.34
2022-11-05T12:15:17.429Z,98729.34
2022-11-05T12:16:21.165Z,98729.34
2022-11-05T12:17:36.802Z,98735.88
2022-11-05T12:18:53.213Z,98733.22
2022-11-05T12:20:01.283Z,98731.50
2022-11-05T12:21:34.862Z,98730.34
2022-11-05T12:22:58.881Z,98728.78
2022-11-05T12:24:18.515Z,98723.97
2022-11-05T12:25:27.748Z,98720.34
2022-11-05T12:26:54.374Z,98718.66
2022-11-05T12:27:55.694Z,98720.41
2022-11-05T12:29:19.891Z,98720.88
2022-11-05T12:30:21.821Z,98715.75
2022-11-05T12:31:41.694Z,98720.13
2022-11-05T12:33:01.560Z,98719.03
2022-11-05T12:34:10.482Z,98721.88
2022-11-05T12:35:30.691Z,98719.34
2022-11-05T12:36:34.883Z,98719.81